Time,TemperatureF,DewpointF,PressureIn,WindDirection,WindDirectionDegrees,WindSpeedMPH,WindSpeedGustMPH,Humidity,HourlyPrecipIn,Conditions,Clouds,dailyrainin,SoftwareType,DateUTC
2013-09-02 00:01:00,68.7,67.8,29.78,SSW,200,0.0,2.0,97,0.00,,,0.01,WUHU216DAVISVP2,2013-09-02 04:01:00,
2013-09-02 00:06:00,68.7,67.8,29.78,SW,214,0.0,1.0,97,0.00,,,0.00,WUHU216DAVISVP2,2013-09-02 04:06:00,
2013-09-02 00:11:00,68.8,67.9,29.78,SSW,212,0.0,1.0,97,0.00,,,0.00,WUHU216DAVISVP2,2013-09-02 04:11:00,
2013-09-02 00:16:00,68.9,68.0,29.77,South,175,1.0,2.0,97,0.00,,,0.00,WUHU216DAVISVP2,2013-09-02 04:16:00,
2013-09-02 00:21:00,69.2,68.6,29.77,SSW,194,2.0,5.0,98,0.00,,,0.00,WUHU216DAVISVP2,2013-09-02 04:21:00,
2013-09-02 00:26:00,69.4,68.8,29.76,South,190,3.0,6.0,98,0.00,,,0.00,WUHU216DAVISVP2,2013-09-02 04:26:00,
2013-09-02 00:31:00,69.4,68.8,29.77,SW,235,2.0,6.0,98,0.00,,,0.00,WUHU216DAVISVP2,2013-09-02 04:31:00,
2013-09-02 00:36:00,69.5,68.9,29.77,SSW,200,1.0,6.0,98,0.00,,,0.00,WUHU216DAVISVP2,2013-09-02 04:36:00,
2013-09-02 00:41:00,69.5,68.6,29.77,SSW,212,1.0,6.0,97,0.00,,,0.00,WUHU216DAVISVP2,2013-09-02 04:41:00,
2013-09-02 00:46:00,69.5,68.6,29.77,SW,225,2.0,6.0,97,0.00,,,0.00,WUHU216DAVISVP2,2013-09-02 04:46:00,
2013-09-02 00:51:00,69.5,68.6,29.78,SW,224,1.0,6.0,97,0.00,,,0.00,WUHU216DAVISVP2,2013-09-02 04:51:00,
2013-09-02 00:56:00,69.4,68.5,29.78,WSW,246,0.0,6.0,97,0.00,,,0.00,WUHU216DAVISVP2,2013-09-02 04:56:00,
2013-09-02 01:01:00,69.3,68.4,29.78,SW,221,1.0,4.0,97,0.00,,,0.00,WUHU216DAVISVP2,2013-09-02 05:01:00,
2013-09-02 01:06:00,69.3,68.4,29.78,SSW,207,0.0,4.0,97,0.00,,,0.00,WUHU216DAVISVP2,2013-09-02 05:06:00,
2013-09-02 01:11:00,69.2,68.3,29.78,WSW,249,0.0,2.0,97,0.00,,,0.00,WUHU216DAVISVP2,2013-09-02 05:11:00,
2013-09-02 01:16:00,69.2,68.3,29.77,SSW,212,0.0,2.0,97,0.00,,,0.00,WUHU216DAVISVP2,2013-09-02 05:16:00,
2013-09-02 01:21:00,69.2,68.3,29.76,South,191,0.0,1.0,97,0.00,,,0.00,WUHU216DAVISVP2,2013-09-02 05:21:00,
2013-09-02 01:26:00,69.1,68.2,29.75,SSW,194,0.0,1.0,97,0.00,,,0.00,WUHU216DAVISVP2,2013-09-02 05:26:00,
2013-09-02 01:31:00,69.0,68.1,29.74,ESE,107,0.0,1.0,97,0.00,,,0.00,WUHU216DAVISVP2,2013-09-02 05:31:00,
2013-09-02 01:36:00,69.0,68.1,29.74,ENE,61,0.0,1.0,97,0.00,,,0.00,WUHU216DAVISVP2,2013-09-02 05:36:00,
2013-09-02 01:41:00,69.0,68.1,29.75,ENE,62,0.0,0.0,97,0.00,,,0.00,WUHU216DAVISVP2,2013-09-02 05:41:00,
2013-09-02 01:46:00,68.9,68.0,29.76,WSW,252,0.0,0.0,97,0.00,,,0.00,WUHU216DAVISVP2,2013-09-02 05:46:00,
2013-09-02 01:51:00,68.9,68.0,29.76,West,264,0.0,0.0,97,0.00,,,0.00,WUHU216DAVISVP2,2013-09-02 05:51:00,
2013-09-02 01:56:00,68.7,67.8,29.76,SW,233,0.0,1.0,97,0.00,,,0.00,WUHU216DAVISVP2,2013-09-02 05:56:00,
2013-09-02 02:01:00,68.6,67.7,29.77,SSW,212,0.0,1.0,97,0.00,,,0.00,WUHU216DAVISVP2,2013-09-02 06:01:00,
2013-09-02 02:06:00,68.6,67.7,29.77,SW,220,0.0,1.0,97,0.00,,,0.00,WUHU216DAVISVP2,2013-09-02 06:06:00,
2013-09-02 02:11:00,68.7,68.1,29.77,West,267,0.0,1.0,98,0.00,,,0.00,WUHU216DAVISVP2,2013-09-02 06:11:00,
2013-09-02 02:16:00,68.9,68.3,29.77,WSW,250,0.0,1.0,98,0.00,,,0.00,WUHU216DAVISVP2,2013-09-02 06:16:00,
2013-09-02 02:21:00,69.1,68.5,29.77,WSW,252,0.0,1.0,98,0.00,,,0.00,WUHU216DAVISVP2,2013-09-02 06:21:00,
2013-09-02 02:26:00,69.2,68.6,29.77,WSW,253,0.0,1.0,98,0.00,,,0.00,WUHU216DAVISVP2,2013-09-02 06:26:00,
2013-09-02 02:31:00,69.3,68.7,29.77,WSW,256,0.0,1.0,98,0.00,,,0.00,WUHU216DAVISVP2,2013-09-02 06:31:00,
2013-09-02 02:36:00,69.4,68.8,29.77,WSW,243,0.0,1.0,98,0.00,,,0.00,WUHU216DAVISVP2,2013-09-02 06:36:00,
2013-09-02 02:41:00,69.5,68.9,29.76,WSW,253,0.0,1.0,98,0.00,,,0.00,WUHU216DAVISVP2,2013-09-02 06:41:00,
2013-09-02 02:46:00,69.6,69.0,29.76,SW,235,0.0,1.0,98,0.00,,,0.00,WUHU216DAVISVP2,2013-09-02 06:46:00,
2013-09-02 02:51:00,69.6,69.0,29.76,SW,228,0.0,1.0,98,0.00,,,0.00,WUHU216DAVISVP2,2013-09-02 06:51:00,
2013-09-02 02:56:00,69.7,69.1,29.77,WSW,249,0.0,1.0,98,0.00,,,0.00,WUHU216DAVISVP2,2013-09-02 06:56:00,
2013-09-02 03:01:00,69.7,69.1,29.76,WSW,250,0.0,1.0,98,0.00,,,0.00,WUHU216DAVISVP2,2013-09-02 07:01:00,
2013-09-02 03:06:00,69.7,69.1,29.77,SW,236,0.0,1.0,98,0.00,,,0.00,WUHU216DAVISVP2,2013-09-02 07:06:00,
2013-09-02 03:11:00,69.7,69.1,29.76,SW,231,0.0,1.0,98,0.00,,,0.00,WUHU216DAVISVP2,2013-09-02 07:11:00,
2013-09-02 03:16:00,69.6,69.0,29.76,SW,218,0.0,1.0,98,0.00,,,0.00,WUHU216DAVISVP2,2013-09-02 07:16:00,
2013-09-02 03:21:00,69.5,68.9,29.76,WSW,243,0.0,1.0,98,0.00,,,0.00,WUHU216DAVISVP2,2013-09-02 07:21:00,
2013-09-02 03:26:00,69.4,68.8,29.76,SW,233,0.0,1.0,98,0.00,,,0.00,WUHU216DAVISVP2,2013-09-02 07:26:00,
2013-09-02 03:31:00,69.2,68.6,29.76,SW,233,0.0,0.0,98,0.00,,,0.00,WUHU216DAVISVP2,2013-09-02 07:31:00,
2013-09-02 03:36:00,69.0,68.4,29.76,WSW,238,0.0,0.0,98,0.00,,,0.00,WUHU216DAVISVP2,2013-09-02 07:36:00,
2013-09-02 03:41:00,68.8,68.2,29.76,SW,217,0.0,0.0,98,0.00,,,0.00,WUHU216DAVISVP2,2013-09-02 07:41:00,
2013-09-02 03:46:00,68.7,68.1,29.77,WSW,250,0.0,1.0,98,0.00,,,0.00,WUHU216DAVISVP2,2013-09-02 07:46:00,
2013-09-02 03:51:00,68.9,68.3,29.76,WSW,238,0.0,1.0,98,0.00,,,0.00,WUHU216DAVISVP2,2013-09-02 07:51:00,
2013-09-02 03:56:00,69.0,68.4,29.76,WSW,238,0.0,1.0,98,0.00,,,0.00,WUHU216DAVISVP2,2013-09-02 07:56:00,
2013-09-02 04:01:00,69.1,68.5,29.76,WSW,238,0.0,1.0,98,0.00,,,0.00,WUHU216DAVISVP2,2013-09-02 08:01:00,
2013-09-02 04:06:00,69.3,68.7,29.76,WSW,252,0.0,1.0,98,0.00,,,0.00,WUHU216DAVISVP2,2013-09-02 08:06:00,
2013-09-02 04:11:00,69.5,68.9,29.76,West,262,0.0,1.0,98,0.00,,,0.00,WUHU216DAVISVP2,2013-09-02 08:11:00,
2013-09-02 04:16:00,69.7,69.1,29.76,West,262,0.0,1.0,98,0.00,,,0.00,WUHU216DAVISVP2,2013-09-02 08:16:00,
2013-09-02 04:21:00,69.8,69.2,29.76,West,273,0.0,1.0,98,0.00,,,0.00,WUHU216DAVISVP2,2013-09-02 08:21:00,
2013-09-02 04:26:00,69.8,69.2,29.76,WSW,250,0.0,1.0,98,0.00,,,0.00,WUHU216DAVISVP2,2013-09-02 08:26:00,
2013-09-02 04:31:00,69.8,69.2,29.76,WSW,255,0.0,1.0,98,0.00,,,0.00,WUHU216DAVISVP2,2013-09-02 08:31:00,
2013-09-02 04:36:00,69.8,69.2,29.76,WNW,293,0.0,2.0,98,0.00,,,0.00,WUHU216DAVISVP2,2013-09-02 08:36:00,
2013-09-02 04:41:00,69.8,69.2,29.76,West,259,0.0,2.0,98,0.00,,,0.00,WUHU216DAVISVP2,2013-09-02 08:41:00,
2013-09-02 04:46:00,69.8,69.2,29.76,SW,230,0.0,2.0,98,0.00,,,0.00,WUHU216DAVISVP2,2013-09-02 08:46:00,
2013-09-02 04:51:00,70.0,69.4,29.76,NNW,328,0.0,3.0,98,0.00,,,0.00,WUHU216DAVISVP2,2013-09-02 08:51:00,
2013-09-02 04:56:00,70.1,69.5,29.76,NNW,328,2.0,4.0,98,0.00,,,0.00,WUHU216DAVISVP2,2013-09-02 08:56:00,
2013-09-02 05:01:00,70.2,69.6,29.77,NW,315,0.0,4.0,98,0.00,,,0.00,WUHU216DAVISVP2,2013-09-02 09:01:00,
2013-09-02 05:06:00,70.2,69.6,29.77,NNW,328,1.0,8.0,98,0.00,,,0.00,WUHU216DAVISVP2,2013-09-02 09:06:00,
2013-09-02 05:11:00,70.2,69.6,29.77,NW,306,3.0,8.0,98,0.00,,,0.00,WUHU216DAVISVP2,2013-09-02 09:11:00,
2013-09-02 05:16:00,70.2,69.6,29.77,North,351,0.0,8.0,98,0.00,,,0.00,WUHU216DAVISVP2,2013-09-02 09:16:00,
2013-09-02 05:21:00,70.2,69.6,29.77,NNW,336,1.0,8.0,98,0.00,,,0.00,WUHU216DAVISVP2,2013-09-02 09:21:00,
2013-09-02 05:26:00,70.2,69.3,29.77,NW,325,0.0,5.0,97,0.00,,,0.00,WUHU216DAVISVP2,2013-09-02 09:26:00,
2013-09-02 05:31:00,70.2,69.6,29.77,North,11,1.0,2.0,98,0.00,,,0.00,WUHU216DAVISVP2,2013-09-02 09:31:00,
2013-09-02 05:36:00,70.2,69.3,29.77,NW,309,0.0,2.0,97,0.00,,,0.00,WUHU216DAVISVP2,2013-09-02 09:36:00,
2013-09-02 05:41:00,70.2,69.3,29.77,NW,305,2.0,2.0,97,0.00,,,0.00,WUHU216DAVISVP2,2013-09-02 09:41:00,
2013-09-02 05:46:00,70.3,69.4,29.77,WNW,293,0.0,2.0,97,0.00,,,0.00,WUHU216DAVISVP2,2013-09-02 09:46:00,
2013-09-02 05:51:00,70.2,69.3,29.78,WNW,300,1.0,2.0,97,0.00,,,0.00,WUHU216DAVISVP2,2013-09-02 09:51:00,
2013-09-02 05:56:00,70.3,69.4,29.78,WNW,301,0.0,2.0,97,0.00,,,0.00,WUHU216DAVISVP2,2013-09-02 09:56:00,
2013-09-02 06:01:00,70.3,69.4,29.78,North,353,1.0,1.0,97,0.00,,,0.00,WUHU216DAVISVP2,2013-09-02 10:01:00,
2013-09-02 06:06:00,70.3,69.4,29.78,WNW,286,0.0,1.0,97,0.00,,,0.00,WUHU216DAVISVP2,2013-09-02 10:06:00,
2013-09-02 06:11:00,70.3,69.4,29.78,NW,308,0.0,1.0,97,0.00,,,0.00,WUHU216DAVISVP2,2013-09-02 10:11:00,
2013-09-02 06:16:00,70.3,69.4,29.78,North,354,1.0,2.0,97,0.00,,,0.00,WUHU216DAVISVP2,2013-09-02 10:16:00,
2013-09-02 06:21:00,70.2,69.3,29.79,SW,223,1.0,2.0,97,0.00,,,0.00,WUHU216DAVISVP2,2013-09-02 10:21:00,
2013-09-02 06:26:00,70.2,69.3,29.79,North,356,0.0,3.0,97,0.00,,,0.00,WUHU216DAVISVP2,2013-09-02 10:26:00,
2013-09-02 06:31:00,70.2,69.3,29.79,NW,309,0.0,3.0,97,0.00,,,0.00,WUHU216DAVISVP2,2013-09-02 10:31:00,
2013-09-02 06:36:00,70.1,69.2,29.79,WNW,302,0.0,3.0,97,0.00,,,0.00,WUHU216DAVISVP2,2013-09-02 10:36:00,
2013-09-02 06:41:00,70.1,69.2,29.79,NNW,328,1.0,4.0,97,0.00,,,0.00,WUHU216DAVISVP2,2013-09-02 10:41:00,
2013-09-02 06:46:00,70.2,69.3,29.79,NW,307,0.0,4.0,97,0.00,,,0.00,WUHU216DAVISVP2,2013-09-02 10:46:00,
2013-09-02 06:51:00,70.1,69.2,29.80,WSW,248,0.0,4.0,97,0.00,,,0.00,WUHU216DAVISVP2,2013-09-02 10:51:00,
2013-09-02 06:56:00,70.1,69.2,29.80,North,359,0.0,4.0,97,0.00,,,0.00,WUHU216DAVISVP2,2013-09-02 10:56:00,
2013-09-02 07:01:00,70.0,69.1,29.80,NW,325,0.0,3.0,97,0.00,,,0.00,WUHU216DAVISVP2,2013-09-02 11:01:00,
2013-09-02 07:06:00,70.0,69.1,29.80,NNW,333,0.0,3.0,97,0.00,,,0.00,WUHU216DAVISVP2,2013-09-02 11:06:00,
2013-09-02 07:11:00,69.9,69.0,29.80,NNW,338,0.0,3.0,97,0.00,,,0.00,WUHU216DAVISVP2,2013-09-02 11:11:00,
2013-09-02 07:16:00,69.9,69.0,29.80,North,8,1.0,5.0,97,0.00,,,0.00,WUHU216DAVISVP2,2013-09-02 11:16:00,
2013-09-02 07:21:00,69.9,68.7,29.81,NNW,340,0.0,5.0,96,0.00,,,0.00,WUHU216DAVISVP2,2013-09-02 11:21:00,
2013-09-02 07:26:00,69.8,68.6,29.81,NNW,340,1.0,5.0,96,0.00,,,0.00,WUHU216DAVISVP2,2013-09-02 11:26:00,
2013-09-02 07:31:00,69.8,68.9,29.81,NW,326,2.0,5.0,97,0.00,,,0.00,WUHU216DAVISVP2,2013-09-02 11:31:00,
2013-09-02 07:36:00,69.7,68.8,29.81,NNW,337,0.0,3.0,97,0.00,,,0.00,WUHU216DAVISVP2,2013-09-02 11:36:00,
2013-09-02 07:41:00,69.6,68.7,29.82,NW,315,1.0,3.0,97,0.00,,,0.00,WUHU216DAVISVP2,2013-09-02 11:41:00,
2013-09-02 07:46:00,69.6,68.7,29.82,NNW,343,2.0,4.0,97,0.00,,,0.00,WUHU216DAVISVP2,2013-09-02 11:46:00,
2013-09-02 07:51:00,69.5,68.3,29.82,NNW,340,0.0,4.0,96,0.00,,,0.00,WUHU216DAVISVP2,2013-09-02 11:51:00,
2013-09-02 07:56:00,69.4,68.2,29.82,NNW,335,0.0,4.0,96,0.00,,,0.00,WUHU216DAVISVP2,2013-09-02 11:56:00,
2013-09-02 08:01:00,69.3,68.1,29.82,WNW,302,1.0,6.0,96,0.00,,,0.00,WUHU216DAVISVP2,2013-09-02 12:01:00,
2013-09-02 08:06:00,69.3,68.1,29.82,North,359,0.0,6.0,96,0.00,,,0.00,WUHU216DAVISVP2,2013-09-02 12:06:00,
2013-09-02 08:11:00,69.4,68.2,29.82,North,352,0.0,6.0,96,0.00,,,0.00,WUHU216DAVISVP2,2013-09-02 12:11:00,
2013-09-02 08:16:00,69.6,68.4,29.83,NW,323,0.0,6.0,96,0.00,,,0.00,WUHU216DAVISVP2,2013-09-02 12:16:00,
2013-09-02 08:21:00,69.6,68.4,29.83,NNW,327,1.0,3.0,96,0.00,,,0.00,WUHU216DAVISVP2,2013-09-02 12:21:00,
2013-09-02 08:26:00,69.5,68.3,29.83,North,8,2.0,5.0,96,0.00,,,0.00,WUHU216DAVISVP2,2013-09-02 12:26:00,
2013-09-02 08:31:00,69.5,68.3,29.83,NNE,15,0.0,5.0,96,0.00,,,0.00,WUHU216DAVISVP2,2013-09-02 12:31:00,
2013-09-02 08:36:00,69.4,68.2,29.83,NNW,346,0.0,6.0,96,0.00,,,0.00,WUHU216DAVISVP2,2013-09-02 12:36:00,
2013-09-02 08:41:00,69.5,68.3,29.83,NNW,328,1.0,6.0,96,0.00,,,0.00,WUHU216DAVISVP2,2013-09-02 12:41:00,
2013-09-02 08:46:00,69.5,68.3,29.83,NNW,340,0.0,5.0,96,0.00,,,0.00,WUHU216DAVISVP2,2013-09-02 12:46:00,
2013-09-02 08:51:00,69.6,68.1,29.84,North,360,0.0,5.0,95,0.00,,,0.00,WUHU216DAVISVP2,2013-09-02 12:51:00,
2013-09-02 08:56:00,69.7,68.2,29.84,NW,319,1.0,5.0,95,0.00,,,0.00,WUHU216DAVISVP2,2013-09-02 12:56:00,
2013-09-02 09:01:00,69.7,68.2,29.84,WNW,290,0.0,6.0,95,0.00,,,0.00,WUHU216DAVISVP2,2013-09-02 13:01:00,
2013-09-02 09:06:00,69.7,67.9,29.84,NNW,345,1.0,7.0,94,0.00,,,0.00,WUHU216DAVISVP2,2013-09-02 13:06:00,
2013-09-02 09:11:00,69.8,68.0,29.84,WNW,297,1.0,7.0,94,0.00,,,0.00,WUHU216DAVISVP2,2013-09-02 13:11:00,
2013-09-02 09:16:00,69.7,67.6,29.84,NNW,341,5.0,7.0,93,0.00,,,0.00,WUHU216DAVISVP2,2013-09-02 13:16:00,
2013-09-02 09:21:00,69.7,67.6,29.84,NNW,329,3.0,8.0,93,0.00,,,0.00,WUHU216DAVISVP2,2013-09-02 13:21:00,
2013-09-02 09:26:00,70.0,67.5,29.85,NW,316,0.0,8.0,92,0.00,,,0.00,WUHU216DAVISVP2,2013-09-02 13:26:00,
2013-09-02 09:31:00,70.7,68.2,29.85,NNE,18,4.0,8.0,92,0.00,,,0.00,WUHU216DAVISVP2,2013-09-02 13:31:00,
2013-09-02 09:36:00,71.1,68.0,29.85,NNW,346,0.0,8.0,90,0.00,,,0.00,WUHU216DAVISVP2,2013-09-02 13:36:00,
2013-09-02 09:41:00,71.3,67.2,29.85,NNE,25,8.0,11.0,87,0.00,,,0.00,WUHU216DAVISVP2,2013-09-02 13:41:00,
2013-09-02 09:46:00,71.8,68.4,29.85,NNW,338,1.0,11.0,89,0.00,,,0.00,WUHU216DAVISVP2,2013-09-02 13:46:00,
2013-09-02 09:51:00,72.2,67.1,29.85,NW,312,3.0,11.0,84,0.00,,,0.00,WUHU216DAVISVP2,2013-09-02 13:51:00,
2013-09-02 09:56:00,72.0,66.6,29.86,WNW,287,5.0,11.0,83,0.00,,,0.00,WUHU216DAVISVP2,2013-09-02 13:56:00,
2013-09-02 10:01:00,72.1,67.0,29.86,North,8,2.0,11.0,84,0.00,,,0.00,WUHU216DAVISVP2,2013-09-02 14:01:00,
2013-09-02 10:06:00,72.6,67.5,29.86,North,6,3.0,11.0,84,0.00,,,0.00,WUHU216DAVISVP2,2013-09-02 14:06:00,
2013-09-02 10:11:00,72.6,66.5,29.86,North,354,3.0,11.0,81,0.00,,,0.00,WUHU216DAVISVP2,2013-09-02 14:11:00,
2013-09-02 10:16:00,72.8,66.7,29.87,NW,323,5.0,10.0,81,0.00,,,0.00,WUHU216DAVISVP2,2013-09-02 14:16:00,
2013-09-02 10:21:00,73.1,66.7,29.87,North,9,7.0,9.0,80,0.00,,,0.00,WUHU216DAVISVP2,2013-09-02 14:21:00,
2013-09-02 10:26:00,72.9,65.8,29.87,North,356,6.0,9.0,78,0.00,,,0.00,WUHU216DAVISVP2,2013-09-02 14:26:00,
2013-09-02 10:31:00,72.9,65.0,29.87,North,8,9.0,11.0,76,0.00,,,0.00,WUHU216DAVISVP2,2013-09-02 14:31:00,
2013-09-02 10:36:00,73.0,65.5,29.87,NNE,22,6.0,11.0,77,0.00,,,0.00,WUHU216DAVISVP2,2013-09-02 14:36:00,
2013-09-02 10:41:00,73.0,64.8,29.87,NNW,345,4.0,11.0,75,0.00,,,0.00,WUHU216DAVISVP2,2013-09-02 14:41:00,
2013-09-02 10:46:00,73.5,66.0,29.88,NW,309,3.0,11.0,77,0.00,,,0.00,WUHU216DAVISVP2,2013-09-02 14:46:00,
2013-09-02 10:51:00,73.7,64.9,29.88,NNW,339,5.0,10.0,74,0.00,,,0.00,WUHU216DAVISVP2,2013-09-02 14:51:00,
2013-09-02 10:56:00,73.7,65.1,29.88,NW,321,5.0,10.0,74,0.00,,,0.00,WUHU216DAVISVP2,2013-09-02 14:56:00,
2013-09-02 11:01:00,73.7,65.1,29.88,North,350,8.0,10.0,74,0.00,,,0.00,WUHU216DAVISVP2,2013-09-02 15:01:00,
2013-09-02 11:06:00,73.5,63.9,29.88,NNW,330,1.0,12.0,72,0.00,,,0.00,WUHU216DAVISVP2,2013-09-02 15:06:00,
2013-09-02 11:11:00,73.5,63.9,29.88,North,360,8.0,12.0,72,0.00,,,0.00,WUHU216DAVISVP2,2013-09-02 15:11:00,
2013-09-02 11:16:00,73.6,64.4,29.88,NNW,333,8.0,12.0,73,0.00,,,0.00,WUHU216DAVISVP2,2013-09-02 15:16:00,
2013-09-02 11:21:00,73.8,64.4,29.88,NW,315,2.0,12.0,72,0.00,,,0.00,WUHU216DAVISVP2,2013-09-02 15:21:00,
2013-09-02 11:26:00,74.1,64.9,29.89,NNW,335,6.0,12.0,73,0.00,,,0.00,WUHU216DAVISVP2,2013-09-02 15:26:00,
2013-09-02 11:31:00,74.1,64.5,29.89,NW,309,8.0,12.0,72,0.00,,,0.00,WUHU216DAVISVP2,2013-09-02 15:31:00,
2013-09-02 11:36:00,74.4,64.4,29.89,NW,309,6.0,11.0,71,0.00,,,0.00,WUHU216DAVISVP2,2013-09-02 15:36:00,
2013-09-02 11:41:00,74.5,63.7,29.89,NNW,338,8.0,12.0,69,0.00,,,0.00,WUHU216DAVISVP2,2013-09-02 15:41:00,
2013-09-02 11:46:00,74.5,64.3,29.89,North,4,8.0,12.0,70,0.00,,,0.00,WUHU216DAVISVP2,2013-09-02 15:46:00,
2013-09-02 11:51:00,74.6,63.8,29.89,North,4,6.0,12.0,69,0.00,,,0.00,WUHU216DAVISVP2,2013-09-02 15:51:00,
2013-09-02 11:56:00,74.6,64.0,29.89,West,281,6.0,14.0,69,0.00,,,0.00,WUHU216DAVISVP2,2013-09-02 15:56:00,
2013-09-02 12:01:00,74.6,64.0,29.89,WNW,287,6.0,14.0,69,0.00,,,0.00,WUHU216DAVISVP2,2013-09-02 16:01:00,
2013-09-02 12:06:00,74.8,64.2,29.89,NNE,20,6.0,14.0,69,0.00,,,0.00,WUHU216DAVISVP2,2013-09-02 16:06:00,
2013-09-02 12:11:00,75.0,64.8,29.89,WNW,294,6.0,14.0,70,0.00,,,0.00,WUHU216DAVISVP2,2013-09-02 16:11:00,
2013-09-02 12:16:00,75.4,64.7,29.89,NNE,18,1.0,9.0,69,0.00,,,0.00,WUHU216DAVISVP2,2013-09-02 16:16:00,
2013-09-02 12:21:00,75.7,64.6,29.89,NNW,330,5.0,9.0,68,0.00,,,0.00,WUHU216DAVISVP2,2013-09-02 16:21:00,
2013-09-02 12:26:00,75.9,64.8,29.89,WNW,283,6.0,9.0,68,0.00,,,0.00,WUHU216DAVISVP2,2013-09-02 16:26:00,
2013-09-02 12:31:00,76.0,64.5,29.89,North,356,8.0,11.0,67,0.00,,,0.00,WUHU216DAVISVP2,2013-09-02 16:31:00,
2013-09-02 12:36:00,76.1,64.6,29.89,NW,315,1.0,11.0,67,0.00,,,0.00,WUHU216DAVISVP2,2013-09-02 16:36:00,
2013-09-02 12:41:00,76.5,65.8,29.89,NNW,330,2.0,11.0,69,0.00,,,0.00,WUHU216DAVISVP2,2013-09-02 16:41:00,
2013-09-02 12:46:00,76.6,63.7,29.89,NW,309,1.0,11.0,64,0.00,,,0.00,WUHU216DAVISVP2,2013-09-02 16:46:00,
2013-09-02 12:51:00,76.6,65.0,29.89,NNW,347,0.0,10.0,67,0.00,,,0.00,WUHU216DAVISVP2,2013-09-02 16:51:00,
2013-09-02 12:56:00,76.7,63.4,29.89,North,360,4.0,10.0,63,0.00,,,0.00,WUHU216DAVISVP2,2013-09-02 16:56:00,
2013-09-02 13:01:00,77.0,64.1,29.89,NNW,330,3.0,9.0,64,0.00,,,0.00,WUHU216DAVISVP2,2013-09-02 17:01:00,
2013-09-02 13:06:00,77.3,64.8,29.89,NW,304,1.0,9.0,65,0.00,,,0.00,WUHU216DAVISVP2,2013-09-02 17:06:00,
2013-09-02 13:11:00,77.4,64.5,29.89,WNW,297,8.0,8.0,64,0.00,,,0.00,WUHU216DAVISVP2,2013-09-02 17:11:00,
2013-09-02 13:16:00,77.1,63.3,29.89,NNW,347,1.0,8.0,62,0.00,,,0.00,WUHU216DAVISVP2,2013-09-02 17:16:00,
2013-09-02 13:21:00,77.3,64.4,29.89,North,5,6.0,9.0,64,0.00,,,0.00,WUHU216DAVISVP2,2013-09-02 17:21:00,
2013-09-02 13:26:00,76.5,62.7,29.89,NNW,343,2.0,9.0,62,0.00,,,0.00,WUHU216DAVISVP2,2013-09-02 17:26:00,
2013-09-02 13:31:00,76.1,63.7,29.89,NNW,339,0.0,9.0,65,0.00,,,0.00,WUHU216DAVISVP2,2013-09-02 17:31:00,
2013-09-02 13:36:00,76.4,64.0,29.89,WNW,287,8.0,12.0,65,0.00,,,0.00,WUHU216DAVISVP2,2013-09-02 17:36:00,
2013-09-02 13:41:00,76.9,64.5,29.89,West,259,1.0,12.0,65,0.00,,,0.00,WUHU216DAVISVP2,2013-09-02 17:41:00,
2013-09-02 13:46:00,77.0,64.1,29.89,North,360,3.0,12.0,64,0.00,,,0.00,WUHU216DAVISVP2,2013-09-02 17:46:00,
2013-09-02 13:51:00,76.9,63.3,29.88,North,6,5.0,12.0,63,0.00,,,0.00,WUHU216DAVISVP2,2013-09-02 17:51:00,
2013-09-02 13:56:00,77.3,63.3,29.88,SSW,209,0.0,11.0,62,0.00,,,0.00,WUHU216DAVISVP2,2013-09-02 17:56:00,
2013-09-02 14:01:00,77.0,63.0,29.89,WNW,302,1.0,11.0,62,0.00,,,0.00,WUHU216DAVISVP2,2013-09-02 18:01:00,
2013-09-02 14:06:00,77.0,64.1,29.89,NNW,329,6.0,9.0,64,0.00,,,0.00,WUHU216DAVISVP2,2013-09-02 18:06:00,
2013-09-02 14:11:00,77.5,63.7,29.89,NNW,329,5.0,9.0,62,0.00,,,0.00,WUHU216DAVISVP2,2013-09-02 18:11:00,
2013-09-02 14:16:00,78.4,64.1,29.88,WNW,288,5.0,11.0,61,0.00,,,0.00,WUHU216DAVISVP2,2013-09-02 18:16:00,
2013-09-02 14:21:00,77.7,62.4,29.89,North,352,3.0,11.0,59,0.00,,,0.00,WUHU216DAVISVP2,2013-09-02 18:21:00,
2013-09-02 14:26:00,77.5,63.7,29.89,NW,321,3.0,11.0,62,0.00,,,0.00,WUHU216DAVISVP2,2013-09-02 18:26:00,
2013-09-02 14:31:00,77.8,62.0,29.88,NNW,328,1.0,13.0,58,0.00,,,0.00,WUHU216DAVISVP2,2013-09-02 18:31:00,
2013-09-02 14:36:00,77.0,62.3,29.88,NW,312,3.0,13.0,60,0.00,,,0.00,WUHU216DAVISVP2,2013-09-02 18:36:00,
2013-09-02 14:41:00,77.3,63.5,29.88,WNW,290,6.0,13.0,62,0.00,,,0.00,WUHU216DAVISVP2,2013-09-02 18:41:00,
2013-09-02 14:46:00,78.1,63.8,29.88,NW,319,7.0,13.0,61,0.00,,,0.00,WUHU216DAVISVP2,2013-09-02 18:46:00,
2013-09-02 14:51:00,78.2,62.9,29.88,NW,318,4.0,11.0,59,0.00,,,0.00,WUHU216DAVISVP2,2013-09-02 18:51:00,
2013-09-02 14:56:00,77.1,62.4,29.88,North,349,1.0,11.0,60,0.00,,,0.00,WUHU216DAVISVP2,2013-09-02 18:56:00,
2013-09-02 15:01:00,77.6,61.9,29.88,NW,319,4.0,11.0,58,0.00,,,0.00,WUHU216DAVISVP2,2013-09-02 19:01:00,
2013-09-02 15:06:00,77.9,63.1,29.88,North,356,1.0,10.0,60,0.00,,,0.00,WUHU216DAVISVP2,2013-09-02 19:06:00,
2013-09-02 15:11:00,78.3,63.0,29.88,WNW,294,4.0,9.0,59,0.00,,,0.00,WUHU216DAVISVP2,2013-09-02 19:11:00,
2013-09-02 15:16:00,78.4,61.6,29.88,NNW,338,0.0,9.0,56,0.00,,,0.00,WUHU216DAVISVP2,2013-09-02 19:16:00,
2013-09-02 15:21:00,78.5,61.2,29.87,WNW,290,4.0,10.0,55,0.00,,,0.00,WUHU216DAVISVP2,2013-09-02 19:21:00,
2013-09-02 15:26:00,78.9,63.1,29.87,WNW,303,4.0,11.0,58,0.00,,,0.00,WUHU216DAVISVP2,2013-09-02 19:26:00,
2013-09-02 15:31:00,79.4,64.5,29.87,NW,321,2.0,11.0,60,0.00,,,0.00,WUHU216DAVISVP2,2013-09-02 19:31:00,
2013-09-02 15:36:00,78.1,63.3,29.87,NNE,15,2.0,11.0,60,0.00,,,0.00,WUHU216DAVISVP2,2013-09-02 19:36:00,
2013-09-02 15:41:00,77.0,61.8,29.88,NNW,348,6.0,11.0,59,0.00,,,0.00,WUHU216DAVISVP2,2013-09-02 19:41:00,
2013-09-02 15:46:00,76.6,60.4,29.87,NW,311,1.0,14.0,57,0.00,,,0.00,WUHU216DAVISVP2,2013-09-02 19:46:00,
2013-09-02 15:51:00,76.7,61.5,29.87,NW,316,4.0,14.0,59,0.00,,,0.00,WUHU216DAVISVP2,2013-09-02 19:51:00,
2013-09-02 15:56:00,77.2,63.4,29.87,NNW,346,1.0,14.0,62,0.00,,,0.00,WUHU216DAVISVP2,2013-09-02 19:56:00,
2013-09-02 16:01:00,77.7,63.4,29.87,West,264,5.0,13.0,61,0.00,,,0.00,WUHU216DAVISVP2,2013-09-02 20:01:00,
2013-09-02 16:06:00,77.9,63.1,29.87,WNW,287,6.0,13.0,60,0.00,,,0.00,WUHU216DAVISVP2,2013-09-02 20:06:00,
2013-09-02 16:11:00,77.4,63.1,29.87,NNE,18,7.0,12.0,61,0.00,,,0.00,WUHU216DAVISVP2,2013-09-02 20:11:00,
2013-09-02 16:16:00,77.5,63.7,29.87,NW,312,2.0,12.0,62,0.00,,,0.00,WUHU216DAVISVP2,2013-09-02 20:16:00,
2013-09-02 16:21:00,76.5,61.8,29.87,NW,326,2.0,13.0,60,0.00,,,0.00,WUHU216DAVISVP2,2013-09-02 20:21:00,
2013-09-02 16:26:00,76.4,63.1,29.88,NNW,337,9.0,13.0,63,0.00,,,0.00,WUHU216DAVISVP2,2013-09-02 20:26:00,
2013-09-02 16:31:00,76.2,61.0,29.88,North,354,2.0,15.0,59,0.00,,,0.00,WUHU216DAVISVP2,2013-09-02 20:31:00,
2013-09-02 16:36:00,76.3,61.6,29.88,WNW,283,4.0,15.0,60,0.00,,,0.00,WUHU216DAVISVP2,2013-09-02 20:36:00,
2013-09-02 16:41:00,77.0,62.7,29.88,NNW,346,7.0,14.0,61,0.00,,,0.00,WUHU216DAVISVP2,2013-09-02 20:41:00,
2013-09-02 16:46:00,77.4,63.1,29.88,WNW,290,0.0,14.0,61,0.00,,,0.00,WUHU216DAVISVP2,2013-09-02 20:46:00,
2013-09-02 16:51:00,77.1,62.8,29.88,North,1,5.0,10.0,61,0.00,,,0.00,WUHU216DAVISVP2,2013-09-02 20:51:00,
2013-09-02 16:56:00,76.9,62.6,29.88,NNW,340,4.0,10.0,61,0.00,,,0.00,WUHU216DAVISVP2,2013-09-02 20:56:00,
2013-09-02 17:01:00,76.9,63.1,29.88,NW,316,1.0,10.0,62,0.00,,,0.00,WUHU216DAVISVP2,2013-09-02 21:01:00,
2013-09-02 17:06:00,77.0,63.2,29.87,NW,321,2.0,11.0,62,0.00,,,0.00,WUHU216DAVISVP2,2013-09-02 21:06:00,
2013-09-02 17:11:00,76.8,63.0,29.88,NW,319,3.0,11.0,62,0.00,,,0.00,WUHU216DAVISVP2,2013-09-02 21:11:00,
2013-09-02 17:16:00,76.6,62.4,29.88,NNE,30,6.0,11.0,61,0.00,,,0.00,WUHU216DAVISVP2,2013-09-02 21:16:00,
2013-09-02 17:21:00,76.2,62.4,29.88,NW,323,2.0,12.0,62,0.00,,,0.00,WUHU216DAVISVP2,2013-09-02 21:21:00,
2013-09-02 17:26:00,76.2,61.5,29.87,NW,314,2.0,12.0,60,0.00,,,0.00,WUHU216DAVISVP2,2013-09-02 21:26:00,
2013-09-02 17:31:00,76.2,61.5,29.87,NNW,335,8.0,12.0,60,0.00,,,0.00,WUHU216DAVISVP2,2013-09-02 21:31:00,
2013-09-02 17:36:00,75.9,61.2,29.87,North,356,2.0,12.0,60,0.00,,,0.00,WUHU216DAVISVP2,2013-09-02 21:36:00,
2013-09-02 17:41:00,75.7,61.0,29.88,NW,312,3.0,12.0,60,0.00,,,0.00,WUHU216DAVISVP2,2013-09-02 21:41:00,
2013-09-02 17:46:00,75.7,61.0,29.87,WNW,297,2.0,11.0,60,0.00,,,0.00,WUHU216DAVISVP2,2013-09-02 21:46:00,
2013-09-02 17:51:00,75.8,62.5,29.87,North,351,8.0,11.0,63,0.00,,,0.00,WUHU216DAVISVP2,2013-09-02 21:51:00,
2013-09-02 17:56:00,75.8,62.5,29.88,NW,318,5.0,11.0,63,0.00,,,0.00,WUHU216DAVISVP2,2013-09-02 21:56:00,
2013-09-02 18:01:00,75.6,62.3,29.88,NNE,21,2.0,11.0,63,0.00,,,0.00,WUHU216DAVISVP2,2013-09-02 22:01:00,
2013-09-02 18:06:00,75.3,61.6,29.88,NNW,338,7.0,12.0,62,0.00,,,0.00,WUHU216DAVISVP2,2013-09-02 22:06:00,
2013-09-02 18:11:00,75.0,61.8,29.88,WNW,287,5.0,14.0,63,0.00,,,0.00,WUHU216DAVISVP2,2013-09-02 22:11:00,
2013-09-02 18:16:00,74.9,62.1,29.87,NNW,346,5.0,14.0,64,0.00,,,0.00,WUHU216DAVISVP2,2013-09-02 22:16:00,
2013-09-02 18:21:00,74.8,62.5,29.88,NNE,15,3.0,12.0,65,0.00,,,0.00,WUHU216DAVISVP2,2013-09-02 22:21:00,
2013-09-02 18:26:00,74.6,62.3,29.88,WNW,293,7.0,11.0,65,0.00,,,0.00,WUHU216DAVISVP2,2013-09-02 22:26:00,
2013-09-02 18:31:00,74.2,62.3,29.88,NW,326,1.0,10.0,66,0.00,,,0.00,WUHU216DAVISVP2,2013-09-02 22:31:00,
2013-09-02 18:36:00,74.2,61.9,29.88,NW,318,2.0,10.0,65,0.00,,,0.00,WUHU216DAVISVP2,2013-09-02 22:36:00,
2013-09-02 18:41:00,74.1,61.8,29.88,NNW,330,0.0,10.0,65,0.00,,,0.00,WUHU216DAVISVP2,2013-09-02 22:41:00,
2013-09-02 18:46:00,74.0,62.1,29.88,NNW,346,5.0,10.0,66,0.00,,,0.00,WUHU216DAVISVP2,2013-09-02 22:46:00,
2013-09-02 18:51:00,73.8,61.5,29.88,NW,316,7.0,10.0,65,0.00,,,0.00,WUHU216DAVISVP2,2013-09-02 22:51:00,
2013-09-02 18:56:00,73.7,61.4,29.88,NW,323,1.0,10.0,65,0.00,,,0.00,WUHU216DAVISVP2,2013-09-02 22:56:00,
2013-09-02 19:01:00,73.6,61.3,29.88,NNW,346,2.0,10.0,65,0.00,,,0.00,WUHU216DAVISVP2,2013-09-02 23:01:00,
2013-09-02 19:06:00,73.1,61.7,29.88,WNW,302,0.0,8.0,67,0.00,,,0.00,WUHU216DAVISVP2,2013-09-02 23:06:00,
2013-09-02 19:11:00,72.9,61.9,29.88,NW,321,2.0,8.0,68,0.00,,,0.00,WUHU216DAVISVP2,2013-09-02 23:11:00,
2013-09-02 19:16:00,72.7,62.1,29.88,NNW,328,8.0,12.0,69,0.00,,,0.00,WUHU216DAVISVP2,2013-09-02 23:16:00,
2013-09-02 19:21:00,72.4,61.8,29.88,NNW,343,2.0,12.0,69,0.00,,,0.00,WUHU216DAVISVP2,2013-09-02 23:21:00,
2013-09-02 19:26:00,72.1,62.0,29.88,NW,316,2.0,12.0,70,0.00,,,0.00,WUHU216DAVISVP2,2013-09-02 23:26:00,
2013-09-02 19:31:00,71.8,62.5,29.88,NW,315,5.0,12.0,72,0.00,,,0.00,WUHU216DAVISVP2,2013-09-02 23:31:00,
2013-09-02 19:36:00,71.5,62.2,29.89,NNE,13,7.0,12.0,72,0.00,,,0.00,WUHU216DAVISVP2,2013-09-02 23:36:00,
2013-09-02 19:41:00,71.2,62.3,29.89,NW,314,4.0,12.0,73,0.00,,,0.00,WUHU216DAVISVP2,2013-09-02 23:41:00,
2013-09-02 19:46:00,70.9,62.3,29.89,WNW,283,1.0,11.0,74,0.00,,,0.00,WUHU216DAVISVP2,2013-09-02 23:46:00,
2013-09-02 19:51:00,70.5,62.0,29.89,NW,311,0.0,11.0,74,0.00,,,0.00,WUHU216DAVISVP2,2013-09-02 23:51:00,
2013-09-02 19:56:00,70.0,62.2,29.89,NNW,341,1.0,9.0,76,0.00,,,0.00,WUHU216DAVISVP2,2013-09-02 23:56:00,
2013-09-02 20:01:00,69.6,61.8,29.89,North,360,4.0,9.0,76,0.00,,,0.00,WUHU216DAVISVP2,2013-09-03 00:01:00,
2013-09-02 20:06:00,69.2,61.8,29.89,NNW,338,0.0,8.0,77,0.00,,,0.00,WUHU216DAVISVP2,2013-09-03 00:06:00,
2013-09-02 20:11:00,68.7,61.7,29.89,NNW,340,0.0,8.0,78,0.00,,,0.00,WUHU216DAVISVP2,2013-09-03 00:11:00,
2013-09-02 20:16:00,68.1,61.1,29.90,NNW,331,3.0,8.0,78,0.00,,,0.00,WUHU216DAVISVP2,2013-09-03 00:16:00,
2013-09-02 20:21:00,67.7,61.0,29.90,North,354,0.0,6.0,79,0.00,,,0.00,WUHU216DAVISVP2,2013-09-03 00:21:00,
2013-09-02 20:26:00,67.2,60.9,29.90,NW,316,0.0,6.0,80,0.00,,,0.00,WUHU216DAVISVP2,2013-09-03 00:26:00,
2013-09-02 20:31:00,66.8,60.5,29.90,North,360,2.0,6.0,80,0.00,,,0.00,WUHU216DAVISVP2,2013-09-03 00:31:00,
2013-09-02 20:36:00,66.5,60.6,29.91,NNE,13,1.0,6.0,81,0.00,,,0.00,WUHU216DAVISVP2,2013-09-03 00:36:00,
2013-09-02 20:41:00,66.2,60.3,29.91,NNW,335,2.0,8.0,81,0.00,,,0.00,WUHU216DAVISVP2,2013-09-03 00:41:00,
2013-09-02 20:46:00,66.0,60.1,29.91,NNW,338,0.0,8.0,81,0.00,,,0.00,WUHU216DAVISVP2,2013-09-03 00:46:00,
2013-09-02 20:51:00,65.6,60.0,29.91,NW,323,0.0,8.0,82,0.00,,,0.00,WUHU216DAVISVP2,2013-09-03 00:51:00,
2013-09-02 20:56:00,65.1,59.8,29.91,NW,317,0.0,7.0,83,0.00,,,0.00,WUHU216DAVISVP2,2013-09-03 00:56:00,
2013-09-02 21:01:00,64.7,59.8,29.91,NNE,12,2.0,5.0,84,0.00,,,0.00,WUHU216DAVISVP2,2013-09-03 01:01:00,
2013-09-02 21:06:00,64.5,59.6,29.92,North,349,0.0,4.0,84,0.00,,,0.00,WUHU216DAVISVP2,2013-09-03 01:06:00,
2013-09-02 21:11:00,64.4,59.5,29.92,North,1,0.0,5.0,84,0.00,,,0.00,WUHU216DAVISVP2,2013-09-03 01:11:00,
2013-09-02 21:16:00,64.3,59.7,29.92,NNW,334,0.0,5.0,85,0.00,,,0.00,WUHU216DAVISVP2,2013-09-03 01:16:00,
2013-09-02 21:21:00,64.1,59.5,29.92,NNW,328,0.0,5.0,85,0.00,,,0.00,WUHU216DAVISVP2,2013-09-03 01:21:00,
2013-09-02 21:26:00,63.9,59.3,29.92,North,349,0.0,5.0,85,0.00,,,0.00,WUHU216DAVISVP2,2013-09-03 01:26:00,
2013-09-02 21:31:00,63.7,59.1,29.93,North,349,0.0,5.0,85,0.00,,,0.00,WUHU216DAVISVP2,2013-09-03 01:31:00,
2013-09-02 21:36:00,63.5,59.2,29.93,North,356,0.0,5.0,86,0.00,,,0.00,WUHU216DAVISVP2,2013-09-03 01:36:00,
2013-09-02 21:41:00,63.3,59.0,29.93,NNW,330,0.0,5.0,86,0.00,,,0.00,WUHU216DAVISVP2,2013-09-03 01:41:00,
2013-09-02 21:46:00,63.2,58.9,29.93,NW,311,0.0,9.0,86,0.00,,,0.00,WUHU216DAVISVP2,2013-09-03 01:46:00,
2013-09-02 21:51:00,63.0,58.7,29.93,NNW,342,0.0,9.0,86,0.00,,,0.00,WUHU216DAVISVP2,2013-09-03 01:51:00,
2013-09-02 21:56:00,62.7,58.8,29.94,NNW,343,0.0,9.0,87,0.00,,,0.00,WUHU216DAVISVP2,2013-09-03 01:56:00,
2013-09-02 22:01:00,62.4,58.5,29.94,NW,315,0.0,9.0,87,0.00,,,0.00,WUHU216DAVISVP2,2013-09-03 02:01:00,
2013-09-02 22:06:00,62.3,58.4,29.94,WNW,302,1.0,8.0,87,0.00,,,0.00,WUHU216DAVISVP2,2013-09-03 02:06:00,
2013-09-02 22:11:00,62.1,58.2,29.95,NNW,340,0.0,7.0,87,0.00,,,0.00,WUHU216DAVISVP2,2013-09-03 02:11:00,
2013-09-02 22:16:00,61.8,57.9,29.95,NW,309,3.0,9.0,87,0.00,,,0.00,WUHU216DAVISVP2,2013-09-03 02:16:00,
2013-09-02 22:21:00,61.6,57.4,29.95,North,351,4.0,9.0,86,0.00,,,0.00,WUHU216DAVISVP2,2013-09-03 02:21:00,
2013-09-02 22:26:00,61.4,57.2,29.95,NNW,334,1.0,9.0,86,0.00,,,0.00,WUHU216DAVISVP2,2013-09-03 02:26:00,
2013-09-02 22:31:00,61.3,57.1,29.95,NNW,347,0.0,9.0,86,0.00,,,0.00,WUHU216DAVISVP2,2013-09-03 02:31:00,
2013-09-02 22:36:00,61.0,56.8,29.96,North,352,0.0,7.0,86,0.00,,,0.00,WUHU216DAVISVP2,2013-09-03 02:36:00,
2013-09-02 22:41:00,60.8,56.9,29.96,NNE,16,3.0,7.0,87,0.00,,,0.00,WUHU216DAVISVP2,2013-09-03 02:41:00,
2013-09-02 22:46:00,60.6,56.7,29.96,NNE,23,0.0,8.0,87,0.00,,,0.00,WUHU216DAVISVP2,2013-09-03 02:46:00,
2013-09-02 22:51:00,60.5,56.3,29.96,North,1,1.0,8.0,86,0.00,,,0.00,WUHU216DAVISVP2,2013-09-03 02:51:00,
2013-09-02 22:56:00,60.3,56.1,29.96,NNW,340,3.0,8.0,86,0.00,,,0.00,WUHU216DAVISVP2,2013-09-03 02:56:00,
2013-09-02 23:01:00,60.2,56.0,29.96,North,354,1.0,7.0,86,0.00,,,0.00,WUHU216DAVISVP2,2013-09-03 03:01:00,
2013-09-02 23:06:00,60.1,55.9,29.96,North,11,2.0,6.0,86,0.00,,,0.00,WUHU216DAVISVP2,2013-09-03 03:06:00,
2013-09-02 23:11:00,59.9,56.0,29.96,NW,319,2.0,6.0,87,0.00,,,0.00,WUHU216DAVISVP2,2013-09-03 03:11:00,
2013-09-02 23:16:00,59.7,55.8,29.96,NNE,25,0.0,6.0,87,0.00,,,0.00,WUHU216DAVISVP2,2013-09-03 03:16:00,
2013-09-02 23:21:00,59.5,55.9,29.96,North,354,0.0,5.0,88,0.00,,,0.00,WUHU216DAVISVP2,2013-09-03 03:21:00,
2013-09-02 23:26:00,59.3,55.7,29.96,NNE,13,0.0,3.0,88,0.00,,,0.00,WUHU216DAVISVP2,2013-09-03 03:26:00,
2013-09-02 23:31:00,59.2,55.6,29.96,North,4,0.0,5.0,88,0.00,,,0.00,WUHU216DAVISVP2,2013-09-03 03:31:00,
2013-09-02 23:36:00,59.1,55.5,29.96,NNW,333,0.0,5.0,88,0.00,,,0.00,WUHU216DAVISVP2,2013-09-03 03:36:00,
2013-09-02 23:41:00,58.9,55.3,29.96,NNW,336,1.0,5.0,88,0.00,,,0.00,WUHU216DAVISVP2,2013-09-03 03:41:00,
2013-09-02 23:46:00,58.8,55.5,29.96,NNW,346,0.0,5.0,89,0.00,,,0.00,WUHU216DAVISVP2,2013-09-03 03:46:00,
2013-09-02 23:51:00,58.7,55.4,29.96,NNW,347,0.0,4.0,89,0.00,,,0.00,WUHU216DAVISVP2,2013-09-03 03:51:00,
2013-09-02 23:56:00,58.5,55.2,29.96,North,351,0.0,4.0,89,0.00,,,0.00,WUHU216DAVISVP2,2013-09-03 03:56:00,